sensor_id;sensor_type;location;lat;lon;timestamp;pressure;altitude;pressure_sealevel;temperature;humidity
12594;BME280;6362;50.208;9.182;2023-04-24T00:00:13;98681.91;;;11.80;75.09
12594;BME280;6362;50.208;9.182;2023-04-24T00:02:39;98681.03;;;11.81;74.99
12594;BME280;6362;50.208;9.182;2023-04-24T00:05:05;98680.94;;;11.84;75.20
12594;BME280;6362;50.208;9.182;2023-04-24T00:07:31;98680.13;;;11.82;73.88
12594;BME280;6362;50.208;9.182;2023-04-24T00:09:57;98678.44;;;11.80;73.22
12594;BME280;6362;50.208;9.182;2023-04-24T00:12:23;98678.53;;;11.77;73.03
12594;BME280;6362;50.208;9.182;2023-04-24T00:14:48;98678.28;;;11.86;72.97
12594;BME280;6362;50.208;9.182;2023-04-24T00:17:14;98679.25;;;11.83;72.08
12594;BME280;6362;50.208;9.182;2023-04-24T00:19:39;98670.53;;;11.84;72.08
12594;BME280;6362;50.208;9.182;2023-04-24T00:22:04;98669.88;;;11.76;72.14
12594;BME280;6362;50.208;9.182;2023-04-24T00:24:30;98663.72;;;11.79;71.70
12594;BME280;6362;50.208;9.182;2023-04-24T00:26:56;98676.13;;;11.71;72.01
12594;BME280;6362;50.208;9.182;2023-04-24T00:29:21;98667.00;;;11.85;71.85
12594;BME280;6362;50.208;9.182;2023-04-24T00:31:47;98666.81;;;11.92;71.45
12594;BME280;6362;50.208;9.182;2023-04-24T00:34:12;98658.44;;;11.82;72.74
12594;BME280;6362;50.208;9.182;2023-04-24T00:36:38;98662.19;;;11.73;73.69
12594;BME280;6362;50.208;9.182;2023-04-24T00:39:04;98654.41;;;11.72;74.44
12594;BME280;6362;50.208;9.182;2023-04-24T00:41:30;98648.59;;;11.63;74.94
12594;BME280;6362;50.208;9.182;2023-04-24T00:43:55;98650.16;;;11.69;75.69
12594;BME280;6362;50.208;9.182;2023-04-24T00:46:21;98651.09;;;11.67;75.59
12594;BME280;6362;50.208;9.182;2023-04-24T00:48:47;98645.63;;;11.48;76.52
12594;BME280;6362;50.208;9.182;2023-04-24T00:51:12;98644.13;;;11.41;76.94
12594;BME280;6362;50.208;9.182;2023-04-24T00:53:38;98635.69;;;11.32;77.24
12594;BME280;6362;50.208;9.182;2023-04-24T00:56:04;98643.81;;;11.23;77.50
12594;BME280;6362;50.208;9.182;2023-04-24T00:58:30;98629.88;;;11.24;77.91
12594;BME280;6362;50.208;9.182;2023-04-24T01:00:57;98641.06;;;11.28;77.53
12594;BME280;6362;50.208;9.182;2023-04-24T01:03:27;98625.66;;;11.20;77.52
12594;BME280;6362;50.208;9.182;2023-04-24T01:05:54;98633.25;;;11.28;76.54
12594;BME280;6362;50.208;9.182;2023-04-24T01:08:20;98620.19;;;11.29;76.27
12594;BME280;6362;50.208;9.182;2023-04-24T01:10:48;98620.44;;;11.22;76.47
12594;BME280;6362;50.208;9.182;2023-04-24T01:13:15;98624.69;;;11.24;77.54
12594;BME280;6362;50.208;9.182;2023-04-24T01:15:40;98617.06;;;11.18;76.41
12594;BME280;6362;50.208;9.182;2023-04-24T01:18:06;98617.84;;;11.20;76.67
12594;BME280;6362;50.208;9.182;2023-04-24T01:20:32;98624.94;;;11.15;77.21
12594;BME280;6362;50.208;9.182;2023-04-24T01:22:59;98637.22;;;11.12;77.44
12594;BME280;6362;50.208;9.182;2023-04-24T01:25:25;98634.38;;;11.19;77.19
12594;BME280;6362;50.208;9.182;2023-04-24T01:27:51;98636.25;;;11.14;76.92
12594;BME280;6362;50.208;9.182;2023-04-24T01:30:18;98645.16;;;11.07;76.97
12594;BME280;6362;50.208;9.182;2023-04-24T01:32:44;98642.63;;;11.05;77.89
12594;BME280;6362;50.208;9.182;2023-04-24T01:35:10;98640.16;;;11.01;78.50
12594;BME280;6362;50.208;9.182;2023-04-24T01:37:36;98638.78;;;10.89;79.06
12594;BME280;6362;50.208;9.182;2023-04-24T01:40:05;98644.19;;;10.81;79.59
12594;BME280;6362;50.208;9.182;2023-04-24T01:42:32;98643.28;;;10.82;79.36
12594;BME280;6362;50.208;9.182;2023-04-24T01:44:57;98641.56;;;10.83;79.06
12594;BME280;6362;50.208;9.182;2023-04-24T01:47:23;98645.84;;;10.84;79.45
12594;BME280;6362;50.208;9.182;2023-04-24T01:49:50;98638.06;;;10.84;78.79
12594;BME280;6362;50.208;9.182;2023-04-24T01:52:16;98638.13;;;10.81;78.84
12594;BME280;6362;50.208;9.182;2023-04-24T01:54:44;98633.91;;;10.77;79.04
12594;BME280;6362;50.208;9.182;2023-04-24T01:57:10;98628.50;;;10.84;78.61
12594;BME280;6362;50.208;9.182;2023-04-24T01:59:35;98628.56;;;10.81;78.66
12594;BME280;6362;50.208;9.182;2023-04-24T02:02:02;98619.78;;;10.86;78.28
12594;BME280;6362;50.208;9.182;2023-04-24T02:04:27;98619.88;;;10.82;77.88
12594;BME280;6362;50.208;9.182;2023-04-24T02:06:53;98624.88;;;10.90;77.48
12594;BME280;6362;50.208;9.182;2023-04-24T02:09:19;98620.44;;;10.92;77.48
12594;BME280;6362;50.208;9.182;2023-04-24T02:11:44;98623.91;;;10.93;77.12
12594;BME280;6362;50.208;9.182;2023-04-24T02:14:10;98624.94;;;10.87;77.33
12594;BME280;6362;50.208;9.182;2023-04-24T02:16:35;98631.16;;;10.83;77.86
12594;BME280;6362;50.208;9.182;2023-04-24T02:19:02;98618.22;;;10.80;78.18
12594;BME280;6362;50.208;9.182;2023-04-24T02:21:27;98621.41;;;10.90;77.54
12594;BME280;6362;50.208;9.182;2023-04-24T02:23:53;98623.25;;;10.86;77.41
12594;BME280;6362;50.208;9.182;2023-04-24T02:26:19;98620.56;;;10.89;77.22
12594;BME280;6362;50.208;9.182;2023-04-24T02:28:44;98612.78;;;10.88;77.44
12594;BME280;6362;50.208;9.182;2023-04-24T02:31:10;98611.81;;;10.92;76.93
12594;BME280;6362;50.208;9.182;2023-04-24T02:33:35;98609.84;;;11.00;76.38
12594;BME280;6362;50.208;9.182;2023-04-24T02:36:02;98607.31;;;10.97;76.62
12594;BME280;6362;50.208;9.182;2023-04-24T02:38:28;98611.72;;;10.95;76.51
12594;BME280;6362;50.208;9.182;2023-04-24T02:40:54;98597.22;;;10.86;76.60
12594;BME280;6362;50.208;9.182;2023-04-24T02:43:19;98595.97;;;10.99;75.71
12594;BME280;6362;50.208;9.182;2023-04-24T02:45:45;98608.88;;;11.02;75.99
12594;BME280;6362;50.208;9.182;2023-04-24T02:48:11;98591.50;;;11.03;74.55
12594;BME280;6362;50.208;9.182;2023-04-24T02:50:36;98594.13;;;11.03;75.04
12594;BME280;6362;50.208;9.182;2023-04-24T02:53:02;98597.69;;;10.99;75.06
12594;BME280;6362;50.208;9.182;2023-04-24T02:55:27;98593.59;;;10.92;75.58
12594;BME280;6362;50.208;9.182;2023-04-24T02:57:53;98601.06;;;11.02;74.51
12594;BME280;6362;50.208;9.182;2023-04-24T03:00:18;98593.84;;;11.12;73.69
12594;BME280;6362;50.208;9.182;2023-04-24T03:02:44;98592.22;;;11.08;73.90
12594;BME280;6362;50.208;9.182;2023-04-24T03:05:09;98596.63;;;11.06;73.65
12594;BME280;6362;50.208;9.182;2023-04-24T03:07:37;98593.78;;;11.14;73.35
12594;BME280;6362;50.208;9.182;2023-04-24T03:10:03;98595.41;;;11.18;72.64
12594;BME280;6362;50.208;9.182;2023-04-24T03:12:28;98597.88;;;11.21;72.24
12594;BME280;6362;50.208;9.182;2023-04-24T03:14:54;98599.56;;;11.23;71.73
12594;BME280;6362;50.208;9.182;2023-04-24T03:17:19;98596.97;;;11.23;72.37
12594;BME280;6362;50.208;9.182;2023-04-24T03:19:44;98599.66;;;11.20;72.01
12594;BME280;6362;50.208;9.182;2023-04-24T03:22:10;98602.25;;;11.20;72.01
12594;BME280;6362;50.208;9.182;2023-04-24T03:24:36;98606.59;;;11.20;71.88
12594;BME280;6362;50.208;9.182;2023-04-24T03:27:01;98602.22;;;11.22;71.93
12594;BME280;6362;50.208;9.182;2023-04-24T03:29:27;98604.00;;;11.20;72.32
12594;BME280;6362;50.208;9.182;2023-04-24T03:31:52;98601.44;;;11.18;72.26
12594;BME280;6362;50.208;9.182;2023-04-24T03:34:18;98605.69;;;11.21;72.27
12594;BME280;6362;50.208;9.182;2023-04-24T03:36:43;98599.78;;;11.16;72.50
12594;BME280;6362;50.208;9.182;2023-04-24T03:39:08;98607.78;;;11.09;72.89
12594;BME280;6362;50.208;9.182;2023-04-24T03:41:34;98608.56;;;11.13;72.84
12594;BME280;6362;50.208;9.182;2023-04-24T03:43:59;98616.22;;;11.18;72.69
12594;BME280;6362;50.208;9.182;2023-04-24T03:46:25;98617.97;;;11.17;72.59
12594;BME280;6362;50.208;9.182;2023-04-24T03:48:50;98611.22;;;11.10;72.79
12594;BME280;6362;50.208;9.182;2023-04-24T03:51:16;98616.53;;;11.07;73.15
12594;BME280;6362;50.208;9.182;2023-04-24T03:53:41;98621.56;;;11.13;73.31
12594;BME280;6362;50.208;9.182;2023-04-24T03:56:07;98632.03;;;11.12;72.90
12594;BME280;6362;50.208;9.182;2023-04-24T03:58:32;98634.56;;;11.13;72.80
12594;BME280;6362;50.208;9.182;2023-04-24T04:00:58;98628.56;;;11.11;72.25
12594;BME280;6362;50.208;9.182;2023-04-24T04:03:23;98632.81;;;11.14;72.45
12594;BME280;6362;50.208;9.182;2023-04-24T04:05:50;98642.56;;;11.07;72.95
12594;BME280;6362;50.208;9.182;2023-04-24T04:08:16;98645.25;;;11.04;73.57
12594;BME280;6362;50.208;9.182;2023-04-24T04:10:41;98656.75;;;10.97;73.64
12594;BME280;6362;50.208;9.182;2023-04-24T04:13:06;98653.41;;;10.92;74.26
12594;BME280;6362;50.208;9.182;2023-04-24T04:15:32;98656.88;;;10.92;74.61
12594;BME280;6362;50.208;9.182;2023-04-24T04:17:57;98656.97;;;10.89;74.55
12594;BME280;6362;50.208;9.182;2023-04-24T04:20:23;98658.81;;;10.86;74.69
12594;BME280;6362;50.208;9.182;2023-04-24T04:22:48;98665.16;;;10.75;74.83
12594;BME280;6362;50.208;9.182;2023-04-24T04:25:14;98664.53;;;10.67;74.90
12594;BME280;6362;50.208;9.182;2023-04-24T04:27:39;98669.50;;;10.75;75.47
12594;BME280;6362;50.208;9.182;2023-04-24T04:30:07;98668.75;;;10.71;75.57
12594;BME280;6362;50.208;9.182;2023-04-24T04:32:34;98664.72;;;10.61;76.22
12594;BME280;6362;50.208;9.182;2023-04-24T04:35:00;98663.66;;;10.68;76.31
12594;BME280;6362;50.208;9.182;2023-04-24T04:37:32;98670.91;;;10.57;76.65
12594;BME280;6362;50.208;9.182;2023-04-24T04:40:01;98676.16;;;10.54;77.33
12594;BME280;6362;50.208;9.182;2023-04-24T04:42:32;98678.00;;;10.50;76.54
12594;BME280;6362;50.208;9.182;2023-04-24T04:44:59;98681.41;;;10.52;76.58
12594;BME280;6362;50.208;9.182;2023-04-24T04:47:25;98686.91;;;10.42;76.59
12594;BME280;6362;50.208;9.182;2023-04-24T04:49:51;98681.75;;;10.40;76.53
12594;BME280;6362;50.208;9.182;2023-04-24T04:52:17;98683.50;;;10.38;76.82
12594;BME280;6362;50.208;9.182;2023-04-24T04:54:43;98685.41;;;10.33;77.27
12594;BME280;6362;50.208;9.182;2023-04-24T04:57:09;98690.88;;;10.22;77.46
12594;BME280;6362;50.208;9.182;2023-04-24T04:59:35;98691.81;;;10.18;77.77
12594;BME280;6362;50.208;9.182;2023-04-24T05:02:00;98698.81;;;10.16;77.80
12594;BME280;6362;50.208;9.182;2023-04-24T05:04:26;98692.59;;;10.23;76.73
12594;BME280;6362;50.208;9.182;2023-04-24T05:06:52;98701.31;;;10.19;76.92
12594;BME280;6362;50.208;9.182;2023-04-24T05:09:18;98704.03;;;10.15;77.49
12594;BME280;6362;50.208;9.182;2023-04-24T05:11:43;98715.25;;;10.17;77.51
12594;BME280;6362;50.208;9.182;2023-04-24T05:14:09;98714.22;;;10.24;76.70
12594;BME280;6362;50.208;9.182;2023-04-24T05:16:34;98716.84;;;10.22;75.84
12594;BME280;6362;50.208;9.182;2023-04-24T05:19:00;98713.63;;;10.13;76.45
12594;BME280;6362;50.208;9.182;2023-04-24T05:21:25;98715.22;;;10.18;76.52
12594;BME280;6362;50.208;9.182;2023-04-24T05:23:52;98726.66;;;10.10;76.49
12594;BME280;6362;50.208;9.182;2023-04-24T05:26:17;98715.31;;;10.14;76.57
12594;BME280;6362;50.208;9.182;2023-04-24T05:28:43;98733.72;;;10.06;76.31
12594;BME280;6362;50.208;9.182;2023-04-24T05:31:08;98726.81;;;10.05;76.27
12594;BME280;6362;50.208;9.182;2023-04-24T05:33:34;98731.88;;;10.10;76.18
12594;BME280;6362;50.208;9.182;2023-04-24T05:35:59;98727.63;;;10.07;75.57
12594;BME280;6362;50.208;9.182;2023-04-24T05:38:25;98743.69;;;10.23;75.29
12594;BME280;6362;50.208;9.182;2023-04-24T05:40:50;98738.41;;;10.26;74.49
12594;BME280;6362;50.208;9.182;2023-04-24T05:43:15;98735.72;;;10.30;74.26
12594;BME280;6362;50.208;9.182;2023-04-24T05:45:41;98736.44;;;10.36;74.43
12594;BME280;6362;50.208;9.182;2023-04-24T05:48:06;98739.63;;;10.47;73.37
12594;BME280;6362;50.208;9.182;2023-04-24T05:50:32;98746.44;;;10.51;73.49
12594;BME280;6362;50.208;9.182;2023-04-24T05:52:57;98750.91;;;10.46;73.73
12594;BME280;6362;50.208;9.182;2023-04-24T05:55:27;98757.47;;;10.26;73.50
12594;BME280;6362;50.208;9.182;2023-04-24T05:57:53;98748.78;;;10.27;74.83
12594;BME280;6362;50.208;9.182;2023-04-24T06:00:18;98763.16;;;10.41;74.96
12594;BME280;6362;50.208;9.182;2023-04-24T06:02:45;98769.00;;;10.50;72.54
12594;BME280;6362;50.208;9.182;2023-04-24T06:05:11;98770.84;;;10.45;71.82
12594;BME280;6362;50.208;9.182;2023-04-24T06:07:37;98780.13;;;10.55;70.43
12594;BME280;6362;50.208;9.182;2023-04-24T06:10:02;98765.16;;;10.64;69.49
12594;BME280;6362;50.208;9.182;2023-04-24T06:12:28;98784.47;;;10.55;66.65
12594;BME280;6362;50.208;9.182;2023-04-24T06:14:53;98778.59;;;10.47;66.21
12594;BME280;6362;50.208;9.182;2023-04-24T06:17:20;98779.13;;;10.61;65.06
12594;BME280;6362;50.208;9.182;2023-04-24T06:19:46;98779.91;;;10.63;65.25
12594;BME280;6362;50.208;9.182;2023-04-24T06:22:12;98786.09;;;10.92;63.62
12594;BME280;6362;50.208;9.182;2023-04-24T06:24:37;98784.22;;;10.97;60.25
12594;BME280;6362;50.208;9.182;2023-04-24T06:27:03;98789.34;;;11.00;59.49
12594;BME280;6362;50.208;9.182;2023-04-24T06:29:28;98789.25;;;11.03;60.67
12594;BME280;6362;50.208;9.182;2023-04-24T06:31:53;98790.75;;;11.10;60.07
12594;BME280;6362;50.208;9.182;2023-04-24T06:34:19;98795.25;;;11.36;59.70
12594;BME280;6362;50.208;9.182;2023-04-24T06:36:44;98784.47;;;11.48;60.10
12594;BME280;6362;50.208;9.182;2023-04-24T06:39:10;98785.16;;;11.55;58.80
12594;BME280;6362;50.208;9.182;2023-04-24T06:41:35;98802.41;;;11.88;58.45
12594;BME280;6362;50.208;9.182;2023-04-24T06:44:01;98809.44;;;11.85;55.02
12594;BME280;6362;50.208;9.182;2023-04-24T06:46:26;98805.16;;;11.82;56.35
12594;BME280;6362;50.208;9.182;2023-04-24T06:48:53;98802.09;;;11.98;57.18
12594;BME280;6362;50.208;9.182;2023-04-24T06:51:25;98804.19;;;11.86;57.79
12594;BME280;6362;50.208;9.182;2023-04-24T06:53:54;98817.50;;;11.76;58.90
12594;BME280;6362;50.208;9.182;2023-04-24T06:56:21;98810.91;;;11.64;60.06
12594;BME280;6362;50.208;9.182;2023-04-24T06:58:47;98804.34;;;11.80;59.89
12594;BME280;6362;50.208;9.182;2023-04-24T07:01:13;98806.53;;;11.64;59.58
12594;BME280;6362;50.208;9.182;2023-04-24T07:03:38;98808.63;;;11.53;60.07
12594;BME280;6362;50.208;9.182;2023-04-24T07:06:04;98826.03;;;11.51;60.31
12594;BME280;6362;50.208;9.182;2023-04-24T07:08:30;98826.59;;;11.31;57.69
12594;BME280;6362;50.208;9.182;2023-04-24T07:10:56;98835.50;;;11.24;57.87
12594;BME280;6362;50.208;9.182;2023-04-24T07:13:22;98819.38;;;11.10;57.81
12594;BME280;6362;50.208;9.182;2023-04-24T07:15:48;98822.25;;;11.01;57.29
12594;BME280;6362;50.208;9.182;2023-04-24T07:18:19;98830.69;;;11.09;57.30
12594;BME280;6362;50.208;9.182;2023-04-24T07:20:46;98826.56;;;11.02;56.59
12594;BME280;6362;50.208;9.182;2023-04-24T07:23:12;98824.69;;;11.07;57.68
12594;BME280;6362;50.208;9.182;2023-04-24T07:25:38;98833.63;;;10.97;58.84
12594;BME280;6362;50.208;9.182;2023-04-24T07:28:04;98824.94;;;10.98;57.63
12594;BME280;6362;50.208;9.182;2023-04-24T07:30:31;98830.69;;;11.09;58.24
12594;BME280;6362;50.208;9.182;2023-04-24T07:32:58;98830.34;;;11.21;56.82
12594;BME280;6362;50.208;9.182;2023-04-24T07:35:24;98836.25;;;11.28;57.13
12594;BME280;6362;50.208;9.182;2023-04-24T07:37:53;98827.44;;;11.32;58.00
12594;BME280;6362;50.208;9.182;2023-04-24T07:40:19;98831.72;;;11.34;57.62
12594;BME280;6362;50.208;9.182;2023-04-24T07:42:45;98820.78;;;11.53;56.72
12594;BME280;6362;50.208;9.182;2023-04-24T07:45:13;98825.31;;;11.46;56.12
12594;BME280;6362;50.208;9.182;2023-04-24T07:47:40;98818.38;;;11.47;56.54
12594;BME280;6362;50.208;9.182;2023-04-24T07:50:09;98824.34;;;11.50;55.75
12594;BME280;6362;50.208;9.182;2023-04-24T07:52:34;98818.13;;;11.54;56.04
12594;BME280;6362;50.208;9.182;2023-04-24T07:55:00;98820.88;;;11.50;55.44
12594;BME280;6362;50.208;9.182;2023-04-24T07:57:27;98821.72;;;11.80;55.74
12594;BME280;6362;50.208;9.182;2023-04-24T07:59:52;98812.50;;;11.98;54.12
12594;BME280;6362;50.208;9.182;2023-04-24T08:02:17;98820.47;;;11.93;54.40
12594;BME280;6362;50.208;9.182;2023-04-24T08:04:43;98817.72;;;11.98;54.09
12594;BME280;6362;50.208;9.182;2023-04-24T08:07:08;98830.88;;;11.93;54.88
12594;BME280;6362;50.208;9.182;2023-04-24T08:09:34;98832.97;;;12.10;55.71
12594;BME280;6362;50.208;9.182;2023-04-24T08:11:59;98818.75;;;12.20;53.81
12594;BME280;6362;50.208;9.182;2023-04-24T08:14:25;98831.38;;;12.32;54.88
12594;BME280;6362;50.208;9.182;2023-04-24T08:16:51;98843.28;;;12.41;53.93
12594;BME280;6362;50.208;9.182;2023-04-24T08:19:17;98839.53;;;12.50;54.00
12594;BME280;6362;50.208;9.182;2023-04-24T08:21:42;98818.63;;;12.76;54.29
12594;BME280;6362;50.208;9.182;2023-04-24T08:24:08;98828.00;;;12.82;52.59
12594;BME280;6362;50.208;9.182;2023-04-24T08:26:33;98836.00;;;13.02;52.41
12594;BME280;6362;50.208;9.182;2023-04-24T08:28:59;98838.13;;;13.16;52.05
12594;BME280;6362;50.208;9.182;2023-04-24T08:31:24;98834.50;;;12.95;52.33
12594;BME280;6362;50.208;9.182;2023-04-24T08:33:51;98843.66;;;13.07;52.05
12594;BME280;6362;50.208;9.182;2023-04-24T08:36:16;98842.81;;;13.06;52.23
12594;BME280;6362;50.208;9.182;2023-04-24T08:38:42;98867.97;;;12.82;52.87
12594;BME280;6362;50.208;9.182;2023-04-24T08:41:09;98863.00;;;12.50;52.22
12594;BME280;6362;50.208;9.182;2023-04-24T08:43:35;98867.94;;;12.31;53.38
12594;BME280;6362;50.208;9.182;2023-04-24T08:46:03;98869.66;;;12.04;53.82
12594;BME280;6362;50.208;9.182;2023-04-24T08:48:29;98869.56;;;11.77;53.80
12594;BME280;6362;50.208;9.182;2023-04-24T08:50:56;98883.06;;;11.60;54.69
12594;BME280;6362;50.208;9.182;2023-04-24T08:53:22;98872.31;;;11.71;55.19
12594;BME280;6362;50.208;9.182;2023-04-24T08:55:49;98873.34;;;11.36;56.07
12594;BME280;6362;50.208;9.182;2023-04-24T08:58:17;98877.63;;;11.39;56.14
12594;BME280;6362;50.208;9.182;2023-04-24T09:00:43;98874.00;;;11.43;56.56
12594;BME280;6362;50.208;9.182;2023-04-24T09:03:13;98873.09;;;11.75;55.43
12594;BME280;6362;50.208;9.182;2023-04-24T09:05:39;98872.25;;;12.04;54.73
12594;BME280;6362;50.208;9.182;2023-04-24T09:08:06;98848.97;;;12.26;53.89
12594;BME280;6362;50.208;9.182;2023-04-24T09:10:34;98873.72;;;12.12;53.18
12594;BME280;6362;50.208;9.182;2023-04-24T09:12:59;98868.53;;;12.12;53.00
12594;BME280;6362;50.208;9.182;2023-04-24T09:15:27;98881.88;;;12.02;52.91
12594;BME280;6362;50.208;9.182;2023-04-24T09:17:53;98881.09;;;11.98;52.64
12594;BME280;6362;50.208;9.182;2023-04-24T09:20:18;98882.34;;;11.86;52.37
12594;BME280;6362;50.208;9.182;2023-04-24T09:22:44;98878.34;;;11.73;52.41
12594;BME280;6362;50.208;9.182;2023-04-24T09:25:10;98890.00;;;11.61;53.30
12594;BME280;6362;50.208;9.182;2023-04-24T09:27:42;98887.50;;;11.57;53.83
12594;BME280;6362;50.208;9.182;2023-04-24T09:30:09;98885.16;;;11.48;54.25
12594;BME280;6362;50.208;9.182;2023-04-24T09:32:34;98887.94;;;11.42;54.16
12594;BME280;6362;50.208;9.182;2023-04-24T09:37:38;98888.34;;;11.26;56.22
12594;BME280;6362;50.208;9.182;2023-04-24T09:40:30;98885.63;;;11.31;55.66
12594;BME280;6362;50.208;9.182;2023-04-24T09:42:59;98898.63;;;11.31;55.82
12594;BME280;6362;50.208;9.182;2023-04-24T09:45:40;98895.91;;;11.35;55.33
12594;BME280;6362;50.208;9.182;2023-04-24T09:48:09;98899.59;;;11.28;56.38
12594;BME280;6362;50.208;9.182;2023-04-24T09:50:35;98911.81;;;11.25;56.02
12594;BME280;6362;50.208;9.182;2023-04-24T09:53:05;98907.28;;;11.31;55.94
12594;BME280;6362;50.208;9.182;2023-04-24T09:55:39;98926.63;;;11.23;56.14
12594;BME280;6362;50.208;9.182;2023-04-24T09:58:08;98926.75;;;11.18;56.07
12594;BME280;6362;50.208;9.182;2023-04-24T10:00:33;98932.00;;;11.17;56.33
12594;BME280;6362;50.208;9.182;2023-04-24T10:03:04;98924.22;;;11.15;56.60
12594;BME280;6362;50.208;9.182;2023-04-24T10:05:30;98935.34;;;11.22;56.79
12594;BME280;6362;50.208;9.182;2023-04-24T10:07:59;98936.34;;;11.16;56.60
12594;BME280;6362;50.208;9.182;2023-04-24T10:10:25;98939.06;;;11.12;56.64
12594;BME280;6362;50.208;9.182;2023-04-24T10:12:51;98947.19;;;10.98;56.37
12594;BME280;6362;50.208;9.182;2023-04-24T10:15:18;98938.75;;;10.90;56.32
12594;BME280;6362;50.208;9.182;2023-04-24T10:17:50;98951.56;;;10.97;57.01
12594;BME280;6362;50.208;9.182;2023-04-24T10:20:24;98947.44;;;10.89;56.68
12594;BME280;6362;50.208;9.182;2023-04-24T10:22:51;98945.53;;;10.95;56.41
12594;BME280;6362;50.208;9.182;2023-04-24T10:25:23;98931.38;;;11.07;56.68
12594;BME280;6362;50.208;9.182;2023-04-24T10:27:51;98948.78;;;11.05;56.62
12594;BME280;6362;50.208;9.182;2023-04-24T10:30:18;98953.97;;;11.05;56.87
12594;BME280;6362;50.208;9.182;2023-04-24T10:32:44;98939.81;;;11.15;56.88
12594;BME280;6362;50.208;9.182;2023-04-24T10:35:11;98949.88;;;11.29;57.21
12594;BME280;6362;50.208;9.182;2023-04-24T10:37:40;98940.84;;;11.42;57.27
12594;BME280;6362;50.208;9.182;2023-04-24T10:40:08;98951.94;;;11.50;56.96
12594;BME280;6362;50.208;9.182;2023-04-24T10:42:35;98952.13;;;11.74;56.77
12594;BME280;6362;50.208;9.182;2023-04-24T10:45:05;98952.00;;;12.09;56.65
12594;BME280;6362;50.208;9.182;2023-04-24T10:47:39;98951.47;;;12.28;54.97
12594;BME280;6362;50.208;9.182;2023-04-24T10:50:09;98950.38;;;12.63;54.33
12594;BME280;6362;50.208;9.182;2023-04-24T10:52:46;98955.69;;;12.60;54.45
12594;BME280;6362;50.208;9.182;2023-04-24T10:55:13;98956.53;;;12.32;54.48
12594;BME280;6362;50.208;9.182;2023-04-24T10:57:39;98964.28;;;12.06;56.58
12594;BME280;6362;50.208;9.182;2023-04-24T11:00:21;98971.59;;;11.93;58.72
12594;BME280;6362;50.208;9.182;2023-04-24T11:02:48;98972.94;;;11.75;59.18
12594;BME280;6362;50.208;9.182;2023-04-24T11:05:16;98984.34;;;11.39;59.21
12594;BME280;6362;50.208;9.182;2023-04-24T11:08:11;98989.78;;;11.29;59.11
12594;BME280;6362;50.208;9.182;2023-04-24T11:10:47;98992.28;;;10.98;61.65
12594;BME280;6362;50.208;9.182;2023-04-24T11:13:22;98990.88;;;10.85;63.00
12594;BME280;6362;50.208;9.182;2023-04-24T11:16:14;99010.38;;;10.66;65.75
12594;BME280;6362;50.208;9.182;2023-04-24T11:18:42;99018.03;;;10.35;68.37
12594;BME280;6362;50.208;9.182;2023-04-24T11:21:17;99010.50;;;10.19;69.73
12594;BME280;6362;50.208;9.182;2023-04-24T11:23:47;99024.56;;;10.09;70.88
12594;BME280;6362;50.208;9.182;2023-04-24T11:26:22;99021.31;;;9.99;72.35
12594;BME280;6362;50.208;9.182;2023-04-24T11:29:06;99005.97;;;9.87;74.22
12594;BME280;6362;50.208;9.182;2023-04-24T11:31:36;99021.03;;;10.13;75.46
12594;BME280;6362;50.208;9.182;2023-04-24T11:34:10;99026.59;;;10.38;72.03
12594;BME280;6362;50.208;9.182;2023-04-24T11:36:36;99022.69;;;10.59;71.04
12594;BME280;6362;50.208;9.182;2023-04-24T11:39:02;99020.78;;;10.66;71.75
12594;BME280;6362;50.208;9.182;2023-04-24T11:41:28;99021.16;;;10.88;72.09
12594;BME280;6362;50.208;9.182;2023-04-24T11:43:54;99021.53;;;11.08;71.89
12594;BME280;6362;50.208;9.182;2023-04-24T11:46:21;99017.72;;;11.21;70.22
12594;BME280;6362;50.208;9.182;2023-04-24T11:48:47;99024.41;;;11.33;69.60
12594;BME280;6362;50.208;9.182;2023-04-24T11:51:15;99010.97;;;11.48;68.54
12594;BME280;6362;50.208;9.182;2023-04-24T11:53:41;99015.44;;;11.45;67.56
12594;BME280;6362;50.208;9.182;2023-04-24T11:56:08;99014.66;;;11.41;66.59
12594;BME280;6362;50.208;9.182;2023-04-24T11:58:38;99016.44;;;11.39;66.68
12594;BME280;6362;50.208;9.182;2023-04-24T12:01:04;99021.50;;;11.44;66.17
12594;BME280;6362;50.208;9.182;2023-04-24T12:03:30;99015.38;;;11.46;65.13
12594;BME280;6362;50.208;9.182;2023-04-24T12:06:06;99014.31;;;11.53;64.21
12594;BME280;6362;50.208;9.182;2023-04-24T12:08:34;99015.97;;;11.57;63.02
12594;BME280;6362;50.208;9.182;2023-04-24T12:11:04;99025.94;;;11.74;63.35
12594;BME280;6362;50.208;9.182;2023-04-24T12:13:30;99017.56;;;11.96;63.12
12594;BME280;6362;50.208;9.182;2023-04-24T12:16:00;99015.88;;;12.24;62.88
12594;BME280;6362;50.208;9.182;2023-04-24T12:18:26;99019.75;;;12.40;61.72
12594;BME280;6362;50.208;9.182;2023-04-24T12:20:52;99014.41;;;12.43;60.13
12594;BME280;6362;50.208;9.182;2023-04-24T12:23:33;99020.00;;;12.31;60.15
12594;BME280;6362;50.208;9.182;2023-04-24T12:26:00;99010.28;;;12.36;60.53
12594;BME280;6362;50.208;9.182;2023-04-24T12:28:35;99010.97;;;12.43;60.40
12594;BME280;6362;50.208;9.182;2023-04-24T12:31:01;99009.44;;;12.06;61.59
12594;BME280;6362;50.208;9.182;2023-04-24T12:33:26;99016.22;;;12.12;62.35
12594;BME280;6362;50.208;9.182;2023-04-24T12:35:52;99018.28;;;12.01;62.42
12594;BME280;6362;50.208;9.182;2023-04-24T12:38:26;99026.00;;;12.04;63.15
12594;BME280;6362;50.208;9.182;2023-04-24T12:41:03;99023.56;;;11.98;62.45
12594;BME280;6362;50.208;9.182;2023-04-24T12:43:29;99035.19;;;11.52;61.96
12594;BME280;6362;50.208;9.182;2023-04-24T12:45:55;99033.19;;;11.29;62.43
12594;BME280;6362;50.208;9.182;2023-04-24T12:48:20;99026.91;;;11.36;63.72
12594;BME280;6362;50.208;9.182;2023-04-24T12:50:47;99029.19;;;11.82;63.57
12594;BME280;6362;50.208;9.182;2023-04-24T12:53:13;99026.28;;;12.83;61.91
12594;BME280;6362;50.208;9.182;2023-04-24T12:55:39;99016.69;;;13.63;57.79
12594;BME280;6362;50.208;9.182;2023-04-24T12:58:05;99016.44;;;14.66;57.95
12594;BME280;6362;50.208;9.182;2023-04-24T13:00:30;99010.31;;;14.88;55.71
12594;BME280;6362;50.208;9.182;2023-04-24T13:02:56;99004.66;;;14.98;55.84
12594;BME280;6362;50.208;9.182;2023-04-24T13:05:21;99017.16;;;14.92;55.58
12594;BME280;6362;50.208;9.182;2023-04-24T13:07:47;99019.47;;;14.56;56.64
12594;BME280;6362;50.208;9.182;2023-04-24T13:10:12;99016.25;;;14.00;57.79